METAR Data
IDs: Format: Raw Decoded Include TAF

Data at: 2018 UTC 19 May 2019

PAHX 191956Z AUTO 05007KT 10SM CLR 14/06 A2973 RMK AO2 SLP068 T01390056
PAHX 191856Z AUTO 04008KT 10SM CLR 12/05 A2974 RMK AO2 SLP072 T01220050
PAHX 191756Z AUTO 02008KT 10SM CLR 11/04 A2976 RMK AO2 SLP078 T01110044 10111 20061 58003
PAHX 191656Z AUTO 03007KT 10SM CLR 10/05 A2977 RMK AO2 SLP079 T01000050
PAHX 191556Z AUTO 29003KT 10SM FEW110 07/06 A2977 RMK AO2 SLP080 T00720056
PAHX 191456Z AUTO 00000KT 10SM CLR 07/06 A2977 RMK AO2 SLP080 T00670056 58003
PAHX 191356Z AUTO 00000KT 10SM FEW055 07/06 A2977 RMK AO2 SLP083 T00670056
PAHX 191256Z AUTO 00000KT 10SM BKN100 07/05 A2978 RMK AO2 SLP083 T00720050
PAHX 191156Z AUTO 00000KT 10SM BKN070 OVC100 08/07 A2978 RMK AO2 SLP084 60000 T00830067 10122 20078 50001
PAHX 191056Z AUTO 00000KT 10SM SCT060 BKN100 09/05 A2978 RMK AO2 SLP085 T00890050
PAHX 190856Z AUTO 35004KT 10SM -RA FEW050 OVC070 10/06 A2977 RMK AO2 SLP082 P0000 60000 T01000056 401560050 51002
PAHX 190756Z AUTO 12003KT 10SM -RA SCT060 BKN080 OVC095 11/06 A2977 RMK AO2 RAB54 SLP082 P0000 T01110056
PAHX 190556Z AUTO 16005KT 10SM OVC090 12/04 A2977 RMK AO2 SLP080 60000 T01220044 10156 20122 50003
PAHX 190456Z AUTO 14010G14KT 10SM OVC075 12/04 A2977 RMK AO2 SLP081 T01220044
PAHX 190356Z AUTO 12003KT 10SM BKN095 14/01 A2976 RMK AO2 RAB0259E13 SLP079 P0000 T01440011
PAHX 190256Z AUTO 14006G16KT 10SM FEW050 SCT060 OVC080 15/02 A2976 RMK AO2 SLP078 T01500017 58004
PAHX 190207Z AUTO 18005KT 10SM FEW002 14/04 A2977 RMK AO2
PAHX 190156Z AUTO 19006KT 10SM FEW060 SCT080 14/03 A2977 RMK AO2 SLP080 T01440028
PAHX 190056Z AUTO 00000KT 8SM BKN060 15/02 A2977 RMK AO2 SLP080 T01500017
PAHX 182356Z AUTO 25005KT 10SM FEW049 SCT085 15/03 A2977 RMK AO2 SLP082 T01500033 10156 20089 58006
PAHX 182256Z AUTO 23006KT 10SM FEW044 SCT080 14/03 A2978 RMK AO2 SLP086 T01390033
PAHX 182156Z AUTO 00000KT 10SM FEW042 13/03 A2979 RMK AO2 SLP088 T01280033
PAHX 182056Z AUTO 00000KT 10SM CLR 13/04 A2979 RMK AO2 SLP089 T01280044 50003
PAHX 181956Z AUTO VRB04KT 10SM CLR 11/04 A2979 RMK AO2 SLP089 T01110044
PAHX 181856Z AUTO VRB03KT 10SM FEW022 11/05 A2979 RMK AO2 SLP089 T01060050
PAHX 181828Z AUTO 00000KT 10SM FEW002 SCT027 10/05 A2979 RMK AO2
PAHX 181756Z AUTO 21003KT 10SM CLR 09/04 A2978 RMK AO2 SLP086 T00940044 10094 20050 53009
PAHX 181749Z AUTO 00000KT 10SM FEW002 09/05 A2978 RMK AO2
PAHX 181735Z AUTO 00000KT 10SM SCT027 08/05 A2978 RMK AO2
PAHX 181656Z AUTO 21004KT 10SM BKN027 OVC040 07/05 A2977 RMK AO2 SLP081 T00670050
PAHX 181619Z AUTO 18003KT 10SM BKN029 06/04 A2977 RMK AO2
PAHX 181556Z AUTO 00000KT 10SM CLR 06/05 A2976 RMK AO2 SLP078 T00610050
PAHX 181456Z AUTO 12004KT 10SM CLR 05/04 A2975 RMK AO2 SLP075 T00500039 51018
PAHX 181356Z AUTO 00000KT 10SM CLR 05/04 A2974 RMK AO2 SLP071 T00500044
PAHX 181256Z AUTO 22005KT 10SM FEW036 06/04 A2972 RMK AO2 SLP066 T00560044
PAHX 181156Z AUTO 22003KT 10SM CLR 06/05 A2970 RMK AO2 SLP058 60008 70022 T00610050 10117 20061 53019
PAHX 181056Z AUTO 00000KT 10SM FEW050 07/06 A2968 RMK AO2 SLP051 T00720056
PAHX 180956Z AUTO 00000KT 10SM CLR 07/05 A2966 RMK AO2 SLP044 T00670050
PAHX 180856Z AUTO 15004KT 10SM CLR 07/05 A2964 RMK AO2 SLP038 60008 T00670050 401500067 53020